Time;durP1;ratioP1;P1;durP2;ratioP2;P2;SDS_P1;SDS_P2;PMS_P1;PMS_P2;Temp;Humidity;BMP_temperature;BMP_pressure;BME280_temperature;BME280_humidity;BME280_pressure;Samples;Min_cycle;Max_cycle;Signal;HPM_P1;HPM_P2
2021/08/12 00:04:21;;;;;;;12.47;5.17;;;;;;;;;;10440540;28;20278;-70
2021/08/12 00:09:24;;;;;;;8.60;4.83;;;;;;;;;;10480539;28;20266;-71
2021/08/12 00:14:27;;;;;;;11.17;5.17;;;;;;;;;;10471220;28;20282;-70
2021/08/12 00:19:30;;;;;;;10.77;5.43;;;;;;;;;;10489254;28;20223;-69
2021/08/12 00:24:33;;;;;;;11.40;5.10;;;;;;;;;;10454258;28;20223;-70
2021/08/12 00:29:35;;;;;;;13.07;5.77;;;;;;;;;;10478774;28;20256;-70
2021/08/12 00:34:39;;;;;;;10.67;5.47;;;;;;;;;;10472321;28;20323;-68
2021/08/12 00:39:42;;;;;;;10.97;5.63;;;;;;;;;;10442845;28;20238;-71
2021/08/12 00:44:44;;;;;;;11.10;5.63;;;;;;;;;;10468810;28;20278;-69
2021/08/12 00:49:48;;;;;;;10.83;5.47;;;;;;;;;;10466060;28;20633;-68
2021/08/12 00:54:51;;;;;;;10.43;5.67;;;;;;;;;;10449682;28;20199;-71
2021/08/12 00:59:53;;;;;;;10.67;5.23;;;;;;;;;;10487995;28;20537;-68
2021/08/12 01:04:57;;;;;;;12.23;5.83;;;;;;;;;;10477895;28;20221;-70
2021/08/12 01:10:03;;;;;;;12.23;5.57;;;;;;;;;;10476787;28;20216;-69
2021/08/12 01:15:07;;;;;;;10.77;5.70;;;;;;;;;;10484745;28;20196;-70
2021/08/12 01:20:27;;;;;;;9.97;5.70;;;;;;;;;;10489475;28;20216;-70
2021/08/12 01:25:33;;;;;;;9.50;5.23;;;;;;;;;;10460412;28;20303;-71
2021/08/12 01:30:40;;;;;;;11.30;5.77;;;;;;;;;;10475239;28;20219;-68
2021/08/12 01:35:44;;;;;;;11.60;6.17;;;;;;;;;;10470855;28;20193;-70
2021/08/12 01:40:48;;;;;;;11.50;5.67;;;;;;;;;;10456519;28;20217;-70
2021/08/12 01:45:53;;;;;;;11.97;5.97;;;;;;;;;;10472628;28;20200;-69
2021/08/12 01:50:58;;;;;;;11.23;6.00;;;;;;;;;;10473262;28;20223;-68
2021/08/12 01:56:01;;;;;;;11.13;5.97;;;;;;;;;;10465592;28;20239;-69
2021/08/12 02:01:04;;;;;;;11.77;5.90;;;;;;;;;;10475404;28;20209;-69
2021/08/12 02:06:08;;;;;;;12.77;5.97;;;;;;;;;;10471592;28;20635;-70
2021/08/12 02:11:12;;;;;;;10.53;5.77;;;;;;;;;;10453955;28;20245;-69
2021/08/12 02:16:14;;;;;;;11.20;5.80;;;;;;;;;;10471251;28;20565;-69
2021/08/12 02:21:22;;;;;;;13.10;6.40;;;;;;;;;;10465120;28;20455;-69
2021/08/12 02:26:26;;;;;;;11.23;6.20;;;;;;;;;;10451790;28;20279;-70
2021/08/12 02:31:30;;;;;;;12.17;6.40;;;;;;;;;;10467413;28;20217;-69
2021/08/12 02:36:34;;;;;;;12.37;6.37;;;;;;;;;;10469016;28;20502;-69
2021/08/12 02:41:37;;;;;;;11.57;6.23;;;;;;;;;;10476680;28;20216;-68
2021/08/12 02:46:39;;;;;;;11.27;6.60;;;;;;;;;;10482122;28;20287;-69
2021/08/12 02:51:44;;;;;;;10.73;6.27;;;;;;;;;;10481020;28;20270;-68
2021/08/12 02:56:47;;;;;;;11.47;6.37;;;;;;;;;;10469310;28;20242;-71
2021/08/12 03:01:50;;;;;;;13.30;6.80;;;;;;;;;;10466503;28;20228;-68
2021/08/12 03:06:56;;;;;;;12.87;6.70;;;;;;;;;;10441520;28;20197;-71
2021/08/12 03:12:00;;;;;;;11.03;6.33;;;;;;;;;;10452034;28;20215;-71
2021/08/12 03:17:03;;;;;;;13.27;6.63;;;;;;;;;;10465051;28;20598;-73
2021/08/12 03:22:07;;;;;;;12.30;6.90;;;;;;;;;;10474164;28;20300;-70
2021/08/12 03:27:11;;;;;;;11.40;7.10;;;;;;;;;;10466814;28;20188;-71
2021/08/12 03:32:14;;;;;;;10.73;6.80;;;;;;;;;;10427204;28;20209;-72
2021/08/12 03:37:18;;;;;;;10.60;6.97;;;;;;;;;;10474639;28;20200;-70
2021/08/12 03:42:21;;;;;;;14.87;8.20;;;;;;;;;;10479994;28;20270;-70
2021/08/12 03:47:23;;;;;;;11.77;7.57;;;;;;;;;;10466048;28;20196;-70
2021/08/12 03:52:27;;;;;;;13.23;8.20;;;;;;;;;;10466509;28;20290;-71
2021/08/12 03:57:30;;;;;;;14.83;7.60;;;;;;;;;;10427995;28;20196;-71
2021/08/12 04:02:32;;;;;;;14.17;7.90;;;;;;;;;;10471338;28;20220;-69
2021/08/12 04:07:37;;;;;;;13.10;7.50;;;;;;;;;;10470687;28;20209;-70
2021/08/12 04:12:39;;;;;;;11.90;7.50;;;;;;;;;;10470701;28;20282;-69
2021/08/12 04:17:42;;;;;;;15.23;7.47;;;;;;;;;;10463812;28;20217;-68
2021/08/12 04:22:45;;;;;;;16.13;7.97;;;;;;;;;;10470327;28;20212;-68
2021/08/12 04:27:49;;;;;;;14.77;8.73;;;;;;;;;;10452877;28;20258;-70
2021/08/12 04:32:51;;;;;;;15.93;8.23;;;;;;;;;;10447667;28;20703;-70
2021/08/12 04:37:56;;;;;;;15.30;8.80;;;;;;;;;;10465733;28;20204;-68
2021/08/12 04:42:59;;;;;;;16.37;8.30;;;;;;;;;;10476581;28;20197;-69
2021/08/12 04:48:02;;;;;;;13.07;8.20;;;;;;;;;;10477904;28;20193;-70
2021/08/12 04:53:06;;;;;;;13.57;7.87;;;;;;;;;;10467095;28;20224;-70
2021/08/12 04:58:09;;;;;;;15.20;8.33;;;;;;;;;;10467611;28;20208;-68
2021/08/12 05:03:11;;;;;;;14.80;8.00;;;;;;;;;;10474429;28;20199;-69
2021/08/12 05:08:16;;;;;;;13.40;8.20;;;;;;;;;;10466106;28;20200;-70
2021/08/12 05:13:18;;;;;;;14.20;8.10;;;;;;;;;;10474170;28;20605;-68
2021/08/12 05:18:21;;;;;;;12.73;7.63;;;;;;;;;;10480624;28;20556;-71
2021/08/12 05:23:25;;;;;;;14.30;8.43;;;;;;;;;;10442882;28;20225;-71
2021/08/12 05:28:27;;;;;;;16.50;8.83;;;;;;;;;;10474507;28;20273;-72
2021/08/12 05:33:30;;;;;;;14.10;8.67;;;;;;;;;;10488609;28;20204;-72
2021/08/12 05:38:34;;;;;;;14.67;8.70;;;;;;;;;;10440738;28;20227;-73
2021/08/12 05:43:36;;;;;;;17.33;8.60;;;;;;;;;;10433607;28;20189;-72
2021/08/12 05:48:39;;;;;;;16.07;8.90;;;;;;;;;;10472776;28;20699;-71
2021/08/12 05:53:43;;;;;;;13.33;8.90;;;;;;;;;;10456431;28;20209;-70
2021/08/12 05:58:45;;;;;;;13.87;8.47;;;;;;;;;;10455612;28;20213;-72
2021/08/12 06:03:48;;;;;;;15.93;9.00;;;;;;;;;;10457252;28;20272;-70
2021/08/12 06:08:52;;;;;;;14.03;9.20;;;;;;;;;;10462725;28;20236;-69
2021/08/12 06:13:54;;;;;;;15.03;8.67;;;;;;;;;;10471264;28;20347;-72
2021/08/12 06:18:57;;;;;;;16.33;9.40;;;;;;;;;;10471579;28;20293;-71
2021/08/12 06:24:01;;;;;;;16.00;9.70;;;;;;;;;;10479725;28;20211;-70
2021/08/12 06:29:03;;;;;;;14.47;8.77;;;;;;;;;;10466740;28;20212;-74
2021/08/12 06:34:06;;;;;;;14.83;9.10;;;;;;;;;;10481059;28;20215;-74
2021/08/12 06:39:10;;;;;;;14.20;9.03;;;;;;;;;;10487650;28;20215;-74
2021/08/12 06:44:13;;;;;;;15.70;9.13;;;;;;;;;;10483570;28;20196;-74
2021/08/12 06:49:15;;;;;;;15.57;9.13;;;;;;;;;;10490730;28;20562;-73
2021/08/12 06:54:19;;;;;;;14.53;8.83;;;;;;;;;;10478128;28;20216;-72
2021/08/12 06:59:22;;;;;;;15.03;8.63;;;;;;;;;;10474257;28;20529;-73
2021/08/12 07:04:25;;;;;;;13.73;8.60;;;;;;;;;;10465059;28;20722;-74
2021/08/12 07:09:29;;;;;;;11.00;7.73;;;;;;;;;;10475488;28;20235;-73
2021/08/12 07:14:31;;;;;;;12.60;7.82;;;;;;;;;;10481432;28;20208;-73
2021/08/12 07:19:34;;;;;;;10.65;7.35;;;;;;;;;;10479401;28;20318;-74
2021/08/12 07:24:38;;;;;;;15.82;8.23;;;;;;;;;;10482755;28;20196;-72
2021/08/12 07:29:41;;;;;;;12.82;7.00;;;;;;;;;;10481136;28;20227;-72
2021/08/12 07:34:43;;;;;;;11.52;6.72;;;;;;;;;;10485161;28;20220;-73
2021/08/12 07:39:47;;;;;;;14.35;7.43;;;;;;;;;;10474551;28;20722;-72
2021/08/12 07:44:50;;;;;;;11.73;7.90;;;;;;;;;;10465803;28;20231;-74
2021/08/12 07:49:53;;;;;;;15.15;8.25;;;;;;;;;;10481899;28;20327;-73
2021/08/12 07:54:57;;;;;;;14.30;8.15;;;;;;;;;;10460251;28;20209;-72
2021/08/12 07:59:59;;;;;;;11.73;7.75;;;;;;;;;;10469777;28;20696;-73
2021/08/12 08:05:02;;;;;;;12.05;7.63;;;;;;;;;;10480603;28;20188;-74
2021/08/12 08:10:08;;;;;;;11.35;7.72;;;;;;;;;;10484789;28;20222;-73
2021/08/12 08:15:11;;;;;;;12.88;7.97;;;;;;;;;;10481971;28;20221;-72
2021/08/12 08:20:27;;;;;;;12.60;7.55;;;;;;;;;;10476265;28;20220;-72
2021/08/12 08:25:31;;;;;;;12.90;7.40;;;;;;;;;;10484225;28;20238;-73
2021/08/12 08:30:34;;;;;;;12.00;8.20;;;;;;;;;;10491698;28;20227;-73
2021/08/12 08:35:37;;;;;;;10.32;7.82;;;;;;;;;;10491260;28;20190;-72
2021/08/12 08:40:41;;;;;;;10.10;6.97;;;;;;;;;;10492516;28;20223;-72
2021/08/12 08:45:45;;;;;;;9.68;7.10;;;;;;;;;;10500442;28;20227;-73
2021/08/12 08:50:47;;;;;;;11.45;7.15;;;;;;;;;;10488879;28;20212;-71
2021/08/12 08:55:52;;;;;;;11.60;7.25;;;;;;;;;;10505250;28;20216;-73
2021/08/12 09:00:55;;;;;;;10.85;7.68;;;;;;;;;;10489640;28;20223;-72
2021/08/12 09:05:58;;;;;;;9.35;7.50;;;;;;;;;;10491160;28;20212;-74
2021/08/12 09:11:04;;;;;;;9.65;7.47;;;;;;;;;;10468107;28;20293;-72
2021/08/12 09:16:29;;;;;;;10.82;7.53;;;;;;;;;;10476590;28;20223;-70
2021/08/12 09:21:32;;;;;;;9.48;6.75;;;;;;;;;;10472855;28;20588;-69
2021/08/12 09:26:39;;;;;;;11.50;7.63;;;;;;;;;;10472214;28;20212;-71
2021/08/12 09:31:55;;;;;;;12.80;7.97;;;;;;;;;;10482889;28;20215;-71
2021/08/12 09:37:04;;;;;;;11.63;7.18;;;;;;;;;;10478172;28;20246;-71
2021/08/12 09:42:11;;;;;;;9.80;7.22;;;;;;;;;;10482202;28;20250;-72
2021/08/12 09:47:14;;;;;;;10.43;7.93;;;;;;;;;;10492927;28;20200;-71
2021/08/12 09:52:28;;;;;;;9.77;7.00;;;;;;;;;;10488382;28;20310;-70
2021/08/12 09:57:41;;;;;;;9.60;6.72;;;;;;;;;;10461977;28;20204;-72
2021/08/12 10:02:44;;;;;;;9.90;7.00;;;;;;;;;;10452173;28;20322;-72
2021/08/12 10:07:47;;;;;;;10.95;6.90;;;;;;;;;;10471112;28;20241;-72
2021/08/12 10:12:53;;;;;;;10.10;6.78;;;;;;;;;;10455731;28;20668;-72
2021/08/12 10:17:56;;;;;;;10.00;7.22;;;;;;;;;;10469316;28;20541;-72
2021/08/12 10:23:02;;;;;;;10.10;7.20;;;;;;;;;;10457065;28;20201;-72
2021/08/12 10:28:06;;;;;;;10.30;7.15;;;;;;;;;;10447222;28;20287;-71
2021/08/12 10:33:09;;;;;;;10.77;7.05;;;;;;;;;;10460861;28;20619;-72
2021/08/12 10:38:12;;;;;;;8.38;6.88;;;;;;;;;;10449197;28;20192;-72
2021/08/12 10:43:20;;;;;;;9.00;6.82;;;;;;;;;;10460993;28;20212;-70
2021/08/12 10:48:23;;;;;;;9.40;6.85;;;;;;;;;;10461470;28;20218;-70
2021/08/12 10:53:26;;;;;;;8.30;6.88;;;;;;;;;;10460876;28;20271;-72
2021/08/12 10:58:52;;;;;;;9.13;7.22;;;;;;;;;;10463384;28;20235;-71
2021/08/12 11:04:00;;;;;;;9.23;6.75;;;;;;;;;;10445259;28;20227;-70
2021/08/12 11:09:04;;;;;;;9.70;6.78;;;;;;;;;;10457456;28;20207;-73
2021/08/12 11:14:10;;;;;;;9.75;7.35;;;;;;;;;;10457079;28;20283;-72
2021/08/12 11:19:34;;;;;;;9.60;7.20;;;;;;;;;;10477953;28;20247;-72
2021/08/12 11:24:49;;;;;;;10.48;6.72;;;;;;;;;;10446317;28;20322;-72
2021/08/12 11:29:52;;;;;;;9.55;7.25;;;;;;;;;;10466624;28;20234;-72
2021/08/12 11:34:57;;;;;;;9.63;6.68;;;;;;;;;;10470466;28;20203;-72
2021/08/12 11:40:00;;;;;;;9.20;7.20;;;;;;;;;;10465712;28;20220;-72
2021/08/12 11:45:05;;;;;;;8.88;6.55;;;;;;;;;;10465839;28;20204;-72
2021/08/12 11:50:09;;;;;;;8.23;7.00;;;;;;;;;;10461633;28;20211;-72
2021/08/12 11:55:17;;;;;;;8.30;6.85;;;;;;;;;;10461267;28;20218;-71
2021/08/12 12:00:21;;;;;;;9.80;7.03;;;;;;;;;;10462358;28;20239;-72
2021/08/12 12:05:25;;;;;;;8.40;7.13;;;;;;;;;;10447632;28;20715;-71
2021/08/12 12:10:34;;;;;;;10.77;7.22;;;;;;;;;;10453054;28;20219;-73
2021/08/12 12:15:38;;;;;;;8.63;7.07;;;;;;;;;;10456034;28;20188;-72
2021/08/12 12:20:44;;;;;;;9.07;6.97;;;;;;;;;;10464895;28;20258;-72
2021/08/12 12:25:49;;;;;;;9.38;7.07;;;;;;;;;;10487891;28;20314;-72
2021/08/12 12:30:51;;;;;;;13.18;7.28;;;;;;;;;;10480887;28;20222;-72
2021/08/12 12:36:03;;;;;;;9.65;7.03;;;;;;;;;;10479844;28;20194;-72
2021/08/12 12:41:07;;;;;;;9.45;6.90;;;;;;;;;;10467469;28;20296;-72
2021/08/12 12:46:09;;;;;;;13.82;11.38;;;;;;;;;;10481190;28;20707;-72
2021/08/12 12:51:24;;;;;;;9.63;6.63;;;;;;;;;;10484484;28;20529;-71
2021/08/12 12:56:31;;;;;;;9.60;6.60;;;;;;;;;;10466829;28;20192;-72
2021/08/12 13:01:33;;;;;;;8.75;6.57;;;;;;;;;;10484805;28;20614;-72
2021/08/12 13:06:38;;;;;;;8.52;6.43;;;;;;;;;;10482276;28;20926;-72
2021/08/12 13:11:42;;;;;;;9.65;6.75;;;;;;;;;;10482979;28;20322;-70
2021/08/12 13:16:45;;;;;;;12.27;6.80;;;;;;;;;;10481168;28;20216;-69
2021/08/12 13:21:49;;;;;;;9.85;7.57;;;;;;;;;;10481184;28;20660;-69
2021/08/12 13:26:57;;;;;;;12.10;8.48;;;;;;;;;;10484884;28;20299;-71
2021/08/12 13:32:04;;;;;;;9.88;6.95;;;;;;;;;;10483471;28;20213;-72
2021/08/12 13:37:08;;;;;;;11.73;8.02;;;;;;;;;;10481573;28;20192;-71
2021/08/12 13:42:11;;;;;;;10.50;6.85;;;;;;;;;;10483373;28;20216;-71
2021/08/12 13:47:13;;;;;;;12.60;7.05;;;;;;;;;;10484320;28;20265;-70
2021/08/12 13:52:18;;;;;;;11.10;6.70;;;;;;;;;;10488516;28;20216;-70
2021/08/12 13:57:20;;;;;;;11.80;7.78;;;;;;;;;;10488300;28;20192;-72
2021/08/12 14:02:23;;;;;;;9.75;6.80;;;;;;;;;;10479878;28;21641;-72
2021/08/12 14:07:27;;;;;;;10.98;7.25;;;;;;;;;;10468750;28;20255;-69
2021/08/12 14:12:30;;;;;;;10.30;7.00;;;;;;;;;;10464798;28;20212;-72
2021/08/12 14:17:32;;;;;;;9.50;6.63;;;;;;;;;;10474183;28;20197;-71
2021/08/12 14:22:37;;;;;;;11.27;6.50;;;;;;;;;;10485414;28;20544;-71
2021/08/12 14:27:41;;;;;;;11.13;7.85;;;;;;;;;;10457123;28;20204;-70
2021/08/12 14:32:43;;;;;;;11.15;6.95;;;;;;;;;;10456073;28;20278;-71
2021/08/12 14:37:48;;;;;;;8.35;5.95;;;;;;;;;;10462376;28;20189;-71
2021/08/12 14:42:50;;;;;;;9.70;6.55;;;;;;;;;;10454384;28;20299;-71
2021/08/12 14:47:55;;;;;;;10.85;7.00;;;;;;;;;;10466604;28;20227;-71
2021/08/12 14:52:58;;;;;;;10.68;6.60;;;;;;;;;;10479318;28;20690;-71
2021/08/12 14:58:01;;;;;;;9.30;6.50;;;;;;;;;;10481287;28;20192;-69
2021/08/12 15:03:04;;;;;;;14.07;8.63;;;;;;;;;;10475567;28;20192;-71
2021/08/12 15:08:08;;;;;;;10.40;6.70;;;;;;;;;;10470415;28;20204;-71
2021/08/12 15:13:11;;;;;;;10.27;6.60;;;;;;;;;;10463055;28;20196;-71
2021/08/12 15:18:14;;;;;;;11.00;6.13;;;;;;;;;;10466151;28;20575;-71
2021/08/12 15:23:17;;;;;;;9.80;6.80;;;;;;;;;;10469789;28;20223;-73
2021/08/12 15:28:20;;;;;;;11.82;7.15;;;;;;;;;;10482061;28;20295;-72
2021/08/12 15:33:23;;;;;;;10.50;6.78;;;;;;;;;;10463427;28;20192;-73
2021/08/12 15:38:27;;;;;;;9.65;6.70;;;;;;;;;;10470767;28;20319;-72
2021/08/12 15:43:29;;;;;;;8.98;6.53;;;;;;;;;;10473008;28;20702;-73
2021/08/12 15:48:32;;;;;;;11.32;6.25;;;;;;;;;;10463427;28;20243;-72
2021/08/12 15:53:36;;;;;;;9.13;6.43;;;;;;;;;;10472247;28;20268;-72
2021/08/12 15:58:39;;;;;;;10.73;6.60;;;;;;;;;;10451704;28;20315;-72
2021/08/12 16:03:41;;;;;;;9.38;6.72;;;;;;;;;;10469855;28;20202;-70
2021/08/12 16:08:45;;;;;;;12.32;6.57;;;;;;;;;;10479980;28;20216;-72
2021/08/12 16:13:48;;;;;;;11.32;6.35;;;;;;;;;;10483723;28;20272;-72
2021/08/12 16:18:50;;;;;;;12.38;6.60;;;;;;;;;;10472255;28;20220;-72
2021/08/12 16:23:55;;;;;;;10.63;6.38;;;;;;;;;;10486989;28;20200;-72
2021/08/12 16:28:57;;;;;;;10.35;6.55;;;;;;;;;;10457849;28;20380;-72
2021/08/12 16:34:00;;;;;;;10.55;6.82;;;;;;;;;;10466141;28;20291;-72
2021/08/12 16:39:04;;;;;;;10.05;6.13;;;;;;;;;;10474538;28;20209;-73
2021/08/12 16:44:07;;;;;;;11.27;6.55;;;;;;;;;;10469937;28;20336;-72
2021/08/12 16:49:09;;;;;;;10.48;6.47;;;;;;;;;;10472002;28;20299;-72
2021/08/12 16:54:13;;;;;;;9.65;6.38;;;;;;;;;;10462686;28;20216;-73
2021/08/12 16:59:16;;;;;;;10.95;6.43;;;;;;;;;;10467588;28;20760;-72
2021/08/12 17:04:18;;;;;;;13.25;6.35;;;;;;;;;;10468891;28;20200;-72
2021/08/12 17:09:22;;;;;;;9.63;6.38;;;;;;;;;;10466156;28;20212;-71
2021/08/12 17:14:25;;;;;;;10.60;6.88;;;;;;;;;;10475894;28;20575;-72
2021/08/12 17:19:27;;;;;;;10.43;6.57;;;;;;;;;;10470542;28;20250;-72
2021/08/12 17:24:31;;;;;;;11.48;6.55;;;;;;;;;;10470735;28;20349;-72
2021/08/12 17:29:34;;;;;;;11.90;6.68;;;;;;;;;;10457526;28;20213;-72
2021/08/12 17:34:36;;;;;;;10.18;6.20;;;;;;;;;;10469163;28;20271;-71
2021/08/12 17:39:40;;;;;;;10.13;6.93;;;;;;;;;;10474435;28;20221;-73
2021/08/12 17:44:43;;;;;;;10.82;6.40;;;;;;;;;;10469993;28;23376;-72
2021/08/12 17:49:49;;;;;;;12.43;6.82;;;;;;;;;;10477809;28;20208;-71
2021/08/12 17:54:53;;;;;;;9.75;6.28;;;;;;;;;;10470850;28;20628;-73
2021/08/12 17:59:57;;;;;;;11.20;6.57;;;;;;;;;;10473669;28;20244;-72
2021/08/12 18:05:00;;;;;;;12.55;7.20;;;;;;;;;;10476067;28;20213;-71
2021/08/12 18:10:04;;;;;;;9.57;6.35;;;;;;;;;;10461497;28;20611;-72
2021/08/12 18:15:07;;;;;;;11.57;7.18;;;;;;;;;;10453576;28;20260;-72
2021/08/12 18:20:10;;;;;;;16.42;9.00;;;;;;;;;;10463656;28;20220;-71
2021/08/12 18:25:15;;;;;;;16.55;9.48;;;;;;;;;;10469773;28;20291;-71
2021/08/12 18:30:17;;;;;;;13.07;8.00;;;;;;;;;;10473165;28;20315;-72
2021/08/12 18:35:20;;;;;;;15.07;8.20;;;;;;;;;;10479108;28;20208;-70
2021/08/12 18:40:24;;;;;;;15.75;10.63;;;;;;;;;;10480420;28;20223;-73
2021/08/12 18:45:26;;;;;;;17.80;11.57;;;;;;;;;;10479851;28;20287;-73
2021/08/12 18:50:29;;;;;;;19.88;13.68;;;;;;;;;;10474051;28;20307;-71
2021/08/12 18:55:33;;;;;;;19.40;12.50;;;;;;;;;;10474698;28;20223;-74
2021/08/12 19:00:35;;;;;;;20.83;12.18;;;;;;;;;;10473219;28;20235;-72
2021/08/12 19:05:38;;;;;;;19.30;10.40;;;;;;;;;;10481035;28;20205;-71
2021/08/12 19:10:42;;;;;;;16.38;10.32;;;;;;;;;;10481405;28;20634;-72
2021/08/12 19:15:44;;;;;;;15.75;9.48;;;;;;;;;;10479350;28;20192;-72
2021/08/12 19:20:47;;;;;;;20.77;15.10;;;;;;;;;;10478529;28;20224;-71
2021/08/12 19:25:51;;;;;;;17.65;10.27;;;;;;;;;;10474773;28;20213;-70
2021/08/12 19:30:53;;;;;;;14.60;8.80;;;;;;;;;;10483301;28;20659;-71
2021/08/12 19:35:56;;;;;;;15.35;9.20;;;;;;;;;;10482407;28;20605;-71
2021/08/12 19:41:00;;;;;;;26.35;21.15;;;;;;;;;;10482425;28;20254;-69
2021/08/12 19:46:02;;;;;;;31.40;25.45;;;;;;;;;;10460525;28;20201;-70
2021/08/12 19:51:05;;;;;;;15.25;11.75;;;;;;;;;;10474476;28;20228;-70
2021/08/12 19:56:10;;;;;;;15.73;11.32;;;;;;;;;;10480799;28;20192;-70
2021/08/12 20:01:12;;;;;;;14.98;10.32;;;;;;;;;;10487184;28;20827;-70
2021/08/12 20:06:15;;;;;;;16.85;10.85;;;;;;;;;;10489962;28;20313;-70
2021/08/12 20:11:19;;;;;;;15.55;11.40;;;;;;;;;;10490642;28;20310;-71
2021/08/12 20:16:22;;;;;;;15.60;11.25;;;;;;;;;;10485114;28;20699;-70
2021/08/12 20:21:25;;;;;;;15.63;9.48;;;;;;;;;;10480898;28;20212;-68
2021/08/12 20:26:28;;;;;;;17.30;11.02;;;;;;;;;;10482194;28;20208;-68
2021/08/12 20:31:31;;;;;;;21.10;14.35;;;;;;;;;;10474689;28;20282;-67
2021/08/12 20:36:34;;;;;;;16.17;10.00;;;;;;;;;;10484512;28;20188;-69
2021/08/12 20:41:38;;;;;;;15.73;10.07;;;;;;;;;;10481619;28;20239;-68
2021/08/12 20:46:40;;;;;;;16.33;11.38;;;;;;;;;;10477036;28;20291;-68
2021/08/12 20:51:43;;;;;;;16.15;12.05;;;;;;;;;;10471534;28;20713;-69
2021/08/12 20:56:47;;;;;;;23.08;14.98;;;;;;;;;;10474892;28;20367;-68
2021/08/12 21:01:49;;;;;;;20.20;13.80;;;;;;;;;;10481599;28;20862;-72
2021/08/12 21:06:52;;;;;;;16.50;11.25;;;;;;;;;;10475628;28;20265;-69
2021/08/12 21:11:56;;;;;;;19.10;12.48;;;;;;;;;;10470319;28;20209;-70
2021/08/12 21:16:58;;;;;;;15.88;10.75;;;;;;;;;;10483653;28;20212;-70
2021/08/12 21:22:01;;;;;;;16.25;11.43;;;;;;;;;;10479020;28;20603;-69
2021/08/12 21:27:05;;;;;;;20.13;14.60;;;;;;;;;;10473647;28;20345;-70
2021/08/12 21:32:08;;;;;;;17.05;10.73;;;;;;;;;;10479425;28;20223;-70
2021/08/12 21:37:10;;;;;;;16.45;11.93;;;;;;;;;;10483682;28;20274;-69
2021/08/12 21:42:29;;;;;;;20.15;13.85;;;;;;;;;;10469098;28;20303;-69
2021/08/12 21:47:32;;;;;;;16.15;10.50;;;;;;;;;;10473175;28;20224;-71
2021/08/12 21:52:34;;;;;;;16.15;11.23;;;;;;;;;;10475652;28;20223;-69
2021/08/12 21:57:38;;;;;;;16.63;11.10;;;;;;;;;;10480930;28;20621;-69
2021/08/12 22:02:41;;;;;;;14.85;11.73;;;;;;;;;;10468339;28;20238;-67
2021/08/12 22:07:44;;;;;;;16.40;11.93;;;;;;;;;;10476755;28;20521;-69
2021/08/12 22:12:49;;;;;;;17.75;12.07;;;;;;;;;;10467960;28;20561;-68
2021/08/12 22:17:52;;;;;;;17.77;11.48;;;;;;;;;;10462516;28;20220;-68
2021/08/12 22:22:56;;;;;;;16.67;11.43;;;;;;;;;;10476214;28;20282;-67
2021/08/12 22:28:01;;;;;;;19.17;12.77;;;;;;;;;;10479670;28;20676;-68
2021/08/12 22:33:04;;;;;;;16.48;10.88;;;;;;;;;;10473814;28;20201;-69
2021/08/12 22:38:08;;;;;;;15.73;11.23;;;;;;;;;;10468885;28;20303;-70
2021/08/12 22:43:12;;;;;;;16.20;11.63;;;;;;;;;;10477767;28;20675;-69
2021/08/12 22:48:14;;;;;;;15.90;11.27;;;;;;;;;;10477547;28;20185;-69
2021/08/12 22:53:17;;;;;;;15.40;10.70;;;;;;;;;;10475195;28;20216;-67
2021/08/12 22:58:21;;;;;;;17.30;11.40;;;;;;;;;;10472274;28;20340;-68
2021/08/12 23:03:23;;;;;;;16.57;12.27;;;;;;;;;;10479292;28;20222;-69
2021/08/12 23:08:26;;;;;;;16.67;12.13;;;;;;;;;;10470578;28;20214;-69
2021/08/12 23:13:29;;;;;;;18.05;12.52;;;;;;;;;;10472167;28;20224;-70
2021/08/12 23:18:32;;;;;;;17.17;11.65;;;;;;;;;;10474973;28;20220;-69
2021/08/12 23:23:35;;;;;;;17.42;11.93;;;;;;;;;;10472792;28;20238;-68
2021/08/12 23:28:38;;;;;;;16.25;11.02;;;;;;;;;;10474276;28;20208;-69
2021/08/12 23:33:41;;;;;;;16.67;11.30;;;;;;;;;;10472810;28;20779;-69
2021/08/12 23:38:44;;;;;;;15.10;11.30;;;;;;;;;;10474258;28;20212;-69
2021/08/12 23:43:47;;;;;;;14.53;11.47;;;;;;;;;;10472616;28;20276;-68
2021/08/12 23:48:50;;;;;;;15.80;11.03;;;;;;;;;;10476775;28;20307;-69
2021/08/12 23:53:52;;;;;;;16.20;11.17;;;;;;;;;;10480933;28;20192;-69
2021/08/12 23:58:56;;;;;;;15.13;10.43;;;;;;;;;;10474155;28;20620;-70
